Time;durP1;ratioP1;P1;durP2;ratioP2;P2;SDS_P1;SDS_P2;PMS_P1;PMS_P2;Temp;Humidity;BMP_temperature;BMP_pressure;BME280_temperature;BME280_humidity;BME280_pressure;Samples;Min_cycle;Max_cycle;Signal;HPM_P1;HPM_P2
2023/01/11 00:02:00;;;;;;;31.83;27.55;;;-0.70;99.90;;;;;;3948226;30;20071;-87
2023/01/11 00:04:22;;;;;;;27.77;24.17;;;-0.90;99.90;;;;;;3948618;30;20075;-88
2023/01/11 00:06:41;;;;;;;25.90;23.30;;;-1.10;99.90;;;;;;3948482;30;20055;-88
2023/01/11 00:09:02;;;;;;;25.30;22.60;;;-1.30;99.90;;;;;;3960283;29;20299;-88
2023/01/11 00:11:21;;;;;;;32.45;26.42;;;-1.50;99.90;;;;;;3961529;30;20054;-87
2023/01/11 00:13:44;;;;;;;24.83;22.33;;;-1.50;99.90;;;;;;3947413;30;20094;-88
2023/01/11 00:16:05;;;;;;;;;;;-1.30;99.90;;;;;;3949468;30;20058;-88
2023/01/11 00:18:25;;;;;;;34.53;27.85;;;-1.10;99.90;;;;;;3947817;30;19976;-88
2023/01/11 00:20:44;;;;;;;32.03;24.73;;;-1.00;99.90;;;;;;3947751;30;20108;-88
2023/01/11 00:23:05;;;;;;;30.58;26.08;;;-0.80;99.90;;;;;;3946366;30;20089;-88
2023/01/11 00:25:24;;;;;;;24.35;22.00;;;-0.90;99.90;;;;;;3948359;30;20058;-88
2023/01/11 00:27:46;;;;;;;21.23;19.25;;;-0.90;99.90;;;;;;3960366;30;20067;-88
2023/01/11 00:30:06;;;;;;;18.05;16.67;;;-1.00;99.90;;;;;;3949345;30;20110;-88
2023/01/11 00:32:26;;;;;;;15.27;14.02;;;-1.10;99.90;;;;;;3948153;30;20132;-88
2023/01/11 00:34:46;;;;;;;13.20;12.10;;;-1.20;99.90;;;;;;3948223;30;20070;-89
2023/01/11 00:37:06;;;;;;;11.15;10.85;;;-1.20;99.90;;;;;;3948138;30;20062;-88
2023/01/11 00:39:25;;;;;;;10.90;10.60;;;-1.30;99.90;;;;;;3947783;30;20377;-89
2023/01/11 00:49:41;;;;;;;21.30;19.77;;;-1.40;99.90;;;;;;3948371;30;20055;-89
2023/01/11 00:52:04;;;;;;;24.83;22.73;;;-1.40;99.90;;;;;;3946955;30;20063;-88
2023/01/11 00:54:24;;;;;;;22.45;20.40;;;-1.50;99.90;;;;;;3948055;30;20157;-88
2023/01/11 00:56:43;;;;;;;21.70;19.88;;;-1.50;99.90;;;;;;3948520;30;20058;-87
2023/01/11 00:59:05;;;;;;;22.35;20.33;;;-1.30;99.90;;;;;;3948022;30;20278;-89
2023/01/11 01:01:26;;;;;;;23.27;20.88;;;-1.50;99.90;;;;;;3947883;30;20123;-89
2023/01/11 01:03:46;;;;;;;25.52;23.13;;;-1.50;99.90;;;;;;3948418;30;20234;-89
2023/01/11 01:06:06;;;;;;;23.10;20.85;;;-1.30;99.90;;;;;;3947756;30;20369;-87
2023/01/11 01:08:26;;;;;;;23.92;21.67;;;-1.60;99.90;;;;;;3947316;30;20285;-89
2023/01/11 01:10:49;;;;;;;23.63;21.13;;;-1.60;99.90;;;;;;3959760;30;20077;-88
2023/01/11 01:15:56;;;;;;;41.80;30.63;;;-1.70;99.90;;;;;;3947363;30;20051;-89
2023/01/11 01:18:17;;;;;;;21.83;19.77;;;-1.60;99.90;;;;;;3948142;30;20366;-88
2023/01/11 01:20:37;;;;;;;17.77;16.35;;;-1.50;99.90;;;;;;3946716;30;20155;-87
2023/01/11 01:22:57;;;;;;;15.90;14.68;;;-1.50;99.90;;;;;;3947401;30;20078;-87
2023/01/11 01:25:17;;;;;;;20.98;18.83;;;-1.30;99.90;;;;;;3958460;30;20058;-89
2023/01/11 01:27:37;;;;;;;23.90;21.40;;;-1.30;99.90;;;;;;3947525;30;20054;-89
2023/01/11 01:29:57;;;;;;;23.27;20.88;;;-1.50;99.90;;;;;;3960396;30;20050;-89
2023/01/11 01:32:16;;;;;;;22.10;19.88;;;-1.60;99.90;;;;;;3959555;30;20097;-87
2023/01/11 01:34:36;;;;;;;27.65;25.25;;;-1.70;99.90;;;;;;3947520;30;20200;-89
2023/01/11 01:36:56;;;;;;;22.45;20.23;;;-1.70;99.90;;;;;;3959354;30;20078;-89
2023/01/11 01:39:15;;;;;;;19.48;17.48;;;-1.70;99.90;;;;;;3948239;30;20369;-88
2023/01/11 01:41:36;;;;;;;23.25;21.20;;;-1.70;99.90;;;;;;3947846;30;20247;-89
2023/01/11 01:43:59;;;;;;;24.30;22.10;;;-1.70;99.90;;;;;;3947226;30;20113;-88
2023/01/11 01:46:20;;;;;;;22.40;20.52;;;-1.90;99.90;;;;;;3947400;30;20079;-89
2023/01/11 01:48:44;;;;;;;22.40;20.15;;;-1.80;99.90;;;;;;3958285;30;20051;-89
2023/01/11 01:51:07;;;;;;;24.40;22.00;;;-2.00;99.90;;;;;;3961021;30;20139;-90
2023/01/11 01:53:31;;;;;;;26.23;23.00;;;-2.00;99.90;;;;;;3948095;30;20416;-89
2023/01/11 01:55:53;;;;;;;23.98;22.02;;;-1.60;99.90;;;;;;3947861;30;20051;-89
2023/01/11 01:58:16;;;;;;;23.05;20.98;;;-1.70;99.90;;;;;;3947270;30;20101;-89
2023/01/11 02:00:43;;;;;;;24.42;22.20;;;-1.80;99.90;;;;;;3958267;30;20161;-89
2023/01/11 02:03:03;;;;;;;24.00;21.88;;;-1.90;99.90;;;;;;3948022;30;20052;-88
2023/01/11 02:05:23;;;;;;;24.92;22.92;;;-1.90;99.90;;;;;;3958919;30;20134;-88
2023/01/11 02:07:45;;;;;;;27.08;23.25;;;-2.00;99.90;;;;;;3946419;30;20098;-88
2023/01/11 02:10:09;;;;;;;26.83;24.00;;;-2.20;99.90;;;;;;3946052;30;20059;-88
2023/01/11 02:12:33;;;;;;;25.05;21.08;;;-2.10;99.90;;;;;;3946948;30;20066;-88
2023/01/11 02:14:54;;;;;;;30.77;24.63;;;-2.10;99.90;;;;;;3946982;30;20103;-89
2023/01/11 02:17:15;;;;;;;28.88;24.92;;;-2.30;99.90;;;;;;3947360;30;20329;-89
2023/01/11 02:19:44;;;;;;;28.15;23.25;;;-2.40;99.90;;;;;;3959252;30;20280;-89
2023/01/11 02:22:45;;;;;;;24.20;21.65;;;-2.20;99.90;;;;;;3947073;30;20058;-89
2023/01/11 02:25:30;;;;;;;21.90;19.80;;;-2.00;99.90;;;;;;3946809;30;20069;-89
2023/01/11 02:28:08;;;;;;;23.02;20.98;;;-1.80;99.90;;;;;;3947317;30;20059;-89
2023/01/11 02:30:33;;;;;;;25.92;22.65;;;-1.70;99.90;;;;;;3945765;30;20058;-89
2023/01/11 02:33:16;;;;;;;39.90;25.02;;;-1.70;99.90;;;;;;3962591;30;20050;-89
2023/01/11 02:36:05;;;;;;;32.00;28.67;;;-1.80;99.90;;;;;;3949498;30;20246;-89
2023/01/11 02:38:34;;;;;;;34.78;32.17;;;-2.00;99.90;;;;;;3962759;30;20217;-89
2023/01/11 02:41:23;;;;;;;36.80;34.08;;;-2.20;99.90;;;;;;3963051;30;20072;-89
2023/01/11 02:46:57;;;;;;;35.38;33.53;;;-2.10;99.90;;;;;;3963683;30;20077;-89
2023/01/11 02:49:26;;;;;;;38.67;36.40;;;-2.30;99.90;;;;;;3950101;30;20158;-89
2023/01/11 02:51:48;;;;;;;45.85;43.42;;;-2.40;99.90;;;;;;3961768;30;20112;-89
2023/01/11 02:54:12;;;;;;;42.40;39.90;;;-2.40;99.90;;;;;;3949181;30;20403;-89
2023/01/11 02:56:37;;;;;;;42.45;40.20;;;-2.50;99.90;;;;;;3962928;30;20184;-90
2023/01/11 02:58:59;;;;;;;42.28;39.63;;;-2.40;99.90;;;;;;3959371;30;20054;-89
2023/01/11 03:01:21;;;;;;;42.95;40.47;;;-2.40;99.90;;;;;;3948140;30;20105;-89
2023/01/11 03:03:41;;;;;;;42.92;40.67;;;-2.40;99.90;;;;;;3961766;30;20093;-89
2023/01/11 03:06:06;;;;;;;45.83;43.20;;;-2.50;99.90;;;;;;3962627;30;20074;-90
2023/01/11 03:08:34;;;;;;;48.20;45.25;;;-2.60;99.90;;;;;;3956714;30;20101;-89
2023/01/11 03:14:12;;;;;;;47.05;44.08;;;-2.50;99.90;;;;;;3960732;30;20150;-89
2023/01/11 03:16:44;;;;;;;44.35;41.75;;;-2.50;99.90;;;;;;3948464;30;20055;-88
2023/01/11 03:19:13;;;;;;;35.38;33.17;;;-2.50;99.90;;;;;;3960209;30;20397;-89
2023/01/11 03:21:54;;;;;;;19.42;18.33;;;-2.40;99.90;;;;;;3949630;30;20370;-88
2023/01/11 03:24:39;;;;;;;17.20;16.17;;;-2.50;99.90;;;;;;3949989;30;20047;-89
2023/01/11 03:27:21;;;;;;;14.32;13.43;;;-2.50;99.90;;;;;;3960557;30;20373;-89
2023/01/11 03:29:49;;;;;;;16.23;15.23;;;-2.40;99.90;;;;;;3948909;30;20043;-89
2023/01/11 03:32:09;;;;;;;16.95;16.13;;;-2.30;99.90;;;;;;3949577;30;20281;-89
2023/01/11 03:34:39;;;;;;;18.65;17.45;;;-2.30;99.90;;;;;;3961280;30;20076;-89
2023/01/11 03:37:12;;;;;;;16.48;15.35;;;-2.30;99.90;;;;;;3949772;30;20105;-88
2023/01/11 03:39:55;;;;;;;16.10;15.20;;;-2.40;99.90;;;;;;3950319;30;20089;-89
2023/01/11 03:42:19;;;;;;;17.90;16.77;;;-2.30;99.90;;;;;;3960148;30;20066;-89
2023/01/11 03:44:45;;;;;;;19.10;17.73;;;-2.30;99.90;;;;;;3948380;30;20059;-88
2023/01/11 03:47:10;;;;;;;18.55;17.52;;;-2.30;99.90;;;;;;3963089;30;20146;-89
2023/01/11 03:49:31;;;;;;;17.05;16.15;;;-2.10;99.90;;;;;;3954020;30;20318;-88
2023/01/11 03:51:55;;;;;;;16.95;15.93;;;-2.10;99.90;;;;;;3950907;30;20067;-89
2023/01/11 03:54:19;;;;;;;15.57;14.68;;;-2.00;99.90;;;;;;3949241;30;20068;-88
2023/01/11 03:56:48;;;;;;;15.48;14.52;;;-1.90;99.90;;;;;;3949110;30;20326;-89
2023/01/11 03:59:08;;;;;;;15.88;14.90;;;-2.00;99.90;;;;;;3949621;30;20089;-89
2023/01/11 04:01:28;;;;;;;25.67;23.00;;;-2.00;99.90;;;;;;3949812;30;20065;-89
2023/01/11 04:03:48;;;;;;;19.90;18.52;;;-2.20;99.90;;;;;;3949488;30;20365;-89
2023/01/11 04:06:10;;;;;;;20.13;18.58;;;-2.40;99.90;;;;;;3960729;30;20434;-89
2023/01/11 04:08:30;;;;;;;19.85;18.50;;;-2.50;99.90;;;;;;3949351;30;20050;-90
2023/01/11 04:10:51;;;;;;;21.52;19.55;;;-2.60;99.90;;;;;;3950313;30;20297;-89
2023/01/11 04:13:11;;;;;;;21.05;19.50;;;-2.70;99.90;;;;;;3959555;30;20050;-89
2023/01/11 04:15:33;;;;;;;18.75;17.15;;;-2.70;99.90;;;;;;3947854;30;20121;-89
2023/01/11 04:17:53;;;;;;;18.88;17.10;;;-2.70;99.90;;;;;;3959009;30;20076;-88
2023/01/11 04:20:13;;;;;;;21.02;19.38;;;-2.80;99.90;;;;;;3947357;30;20063;-89
2023/01/11 04:22:33;;;;;;;18.88;17.35;;;-2.70;99.90;;;;;;3960421;30;20063;-88
2023/01/11 04:24:53;;;;;;;15.70;15.07;;;-2.40;99.90;;;;;;3948021;30;20177;-89
2023/01/11 04:27:13;;;;;;;14.10;13.40;;;-2.40;99.90;;;;;;3948177;30;20062;-89
2023/01/11 04:29:33;;;;;;;13.27;12.38;;;-2.40;99.90;;;;;;3947976;30;20412;-89
2023/01/11 04:31:54;;;;;;;15.10;14.10;;;-2.50;99.90;;;;;;3959366;30;20058;-89
2023/01/11 04:34:14;;;;;;;15.95;14.93;;;-2.50;99.90;;;;;;3947219;30;20059;-90
2023/01/11 04:36:35;;;;;;;14.65;13.95;;;-2.50;99.90;;;;;;3948392;30;20058;-89
2023/01/11 04:38:54;;;;;;;17.08;16.05;;;-2.50;99.90;;;;;;3948332;30;20081;-88
2023/01/11 04:43:55;;;;;;;17.35;16.27;;;-2.60;99.90;;;;;;3948912;30;20092;-89
2023/01/11 04:46:15;;;;;;;12.97;12.27;;;-2.40;99.90;;;;;;3947627;30;20082;-89
2023/01/11 04:48:34;;;;;;;13.80;13.20;;;-2.40;99.90;;;;;;3947309;30;20281;-89
2023/01/11 04:50:55;;;;;;;11.75;11.45;;;-2.30;99.90;;;;;;3947780;30;20071;-89
2023/01/11 04:53:14;;;;;;;14.50;13.63;;;-2.30;99.90;;;;;;3948014;30;20109;-89
2023/01/11 04:55:35;;;;;;;17.30;16.23;;;-2.30;99.90;;;;;;3948965;30;20051;-89
2023/01/11 04:57:55;;;;;;;18.83;17.27;;;-2.50;99.90;;;;;;3960133;30;20098;-89
2023/01/11 05:00:15;;;;;;;18.67;17.48;;;-2.50;99.90;;;;;;3945626;30;20063;-89
2023/01/11 05:02:37;;;;;;;17.45;16.50;;;-2.40;99.90;;;;;;3947713;30;20251;-89
2023/01/11 05:04:57;;;;;;;18.95;17.33;;;-2.50;99.90;;;;;;3947266;30;20047;-89
2023/01/11 05:07:17;;;;;;;16.23;15.13;;;-2.50;99.90;;;;;;3947563;30;20093;-89
2023/01/11 05:09:39;;;;;;;18.05;16.80;;;-2.50;99.90;;;;;;3959436;30;20393;-88
2023/01/11 05:11:59;;;;;;;17.30;16.13;;;-2.60;99.90;;;;;;3947184;30;20063;-89
2023/01/11 05:14:19;;;;;;;17.05;15.98;;;-2.60;99.90;;;;;;3961259;30;20054;-89
2023/01/11 05:16:40;;;;;;;16.52;15.52;;;-2.50;99.90;;;;;;3959750;30;20057;-89
2023/01/11 05:19:00;;;;;;;15.05;13.95;;;-2.60;99.90;;;;;;3944934;30;20274;-89
2023/01/11 05:21:24;;;;;;;16.35;15.00;;;-2.70;99.90;;;;;;3946816;30;20077;-88
2023/01/11 05:23:43;;;;;;;19.70;17.98;;;-2.80;99.90;;;;;;3946625;30;20063;-89
2023/01/11 05:26:16;;;;;;;16.67;15.50;;;-2.80;99.90;;;;;;3959328;30;20178;-89
2023/01/11 05:28:36;;;;;;;17.75;16.70;;;-2.80;99.90;;;;;;3959417;30;20397;-89
2023/01/11 05:30:55;;;;;;;16.10;15.07;;;-2.80;99.90;;;;;;3960182;30;20130;-89
2023/01/11 05:33:15;;;;;;;16.40;15.50;;;-2.70;99.90;;;;;;3948259;30;20058;-89
2023/01/11 05:35:35;;;;;;;17.48;16.30;;;-2.70;99.90;;;;;;3948409;30;20055;-90
2023/01/11 05:37:55;;;;;;;16.60;15.32;;;-2.70;99.90;;;;;;3947585;30;20051;-89
2023/01/11 05:40:16;;;;;;;15.55;14.68;;;-2.70;99.90;;;;;;3959032;30;20131;-89
2023/01/11 05:42:36;;;;;;;16.92;16.00;;;-2.70;99.90;;;;;;3959353;30;20287;-89
2023/01/11 05:47:34;;;;;;;14.32;13.68;;;-2.30;99.90;;;;;;3947299;30;20063;-89
2023/01/11 05:49:54;;;;;;;12.93;12.48;;;-2.30;99.90;;;;;;3948861;30;20062;-89
2023/01/11 05:52:14;;;;;;;13.40;12.68;;;-2.20;99.90;;;;;;3948543;30;20077;-89
2023/01/11 05:54:34;;;;;;;15.48;14.88;;;-2.10;99.90;;;;;;3959293;30;20051;-89
2023/01/11 05:56:56;;;;;;;15.30;14.52;;;-2.00;99.90;;;;;;3947280;30;20055;-89
2023/01/11 05:59:16;;;;;;;18.98;17.35;;;-2.10;99.90;;;;;;3959184;30;20117;-89
2023/01/11 06:01:36;;;;;;;19.50;18.17;;;-2.30;99.90;;;;;;3948085;30;20047;-89
2023/01/11 06:03:56;;;;;;;22.63;21.05;;;-2.50;99.90;;;;;;3958765;30;20046;-88
2023/01/11 06:06:18;;;;;;;22.88;20.98;;;-2.70;99.90;;;;;;3959595;30;20077;-89
2023/01/11 06:08:38;;;;;;;40.38;38.05;;;-2.80;99.90;;;;;;3962376;30;20087;-90
2023/01/11 06:10:58;;;;;;;43.42;41.13;;;-3.00;99.90;;;;;;3950084;30;20067;-89
2023/01/11 06:13:26;;;;;;;45.95;43.15;;;-3.10;99.90;;;;;;3950896;30;20097;-89
2023/01/11 06:15:46;;;;;;;47.80;44.92;;;-3.20;99.90;;;;;;3961621;30;20070;-89
2023/01/11 06:18:07;;;;;;;46.53;43.63;;;-3.20;99.90;;;;;;3949121;30;20067;-88
2023/01/11 06:20:27;;;;;;;42.83;40.13;;;-3.20;99.90;;;;;;3961096;30;20086;-89
2023/01/11 06:22:47;;;;;;;20.13;18.50;;;-3.20;99.90;;;;;;3963740;30;20046;-88
2023/01/11 06:25:06;;;;;;;17.48;16.23;;;-2.90;99.90;;;;;;3950220;30;20055;-87
2023/01/11 06:27:26;;;;;;;96.72;64.88;;;-2.90;99.90;;;;;;3949761;30;20055;-87
2023/01/11 06:29:46;;;;;;;65.80;46.88;;;-3.00;99.90;;;;;;3948278;30;20427;-87
2023/01/11 06:32:07;;;;;;;27.88;25.30;;;-2.90;99.90;;;;;;3961283;30;20384;-87
2023/01/11 06:34:27;;;;;;;22.25;19.85;;;-3.00;99.90;;;;;;3948765;30;20088;-87
2023/01/11 06:36:47;;;;;;;23.50;20.88;;;-3.00;99.90;;;;;;3953436;30;20078;-87
2023/01/11 06:39:07;;;;;;;22.00;20.17;;;-3.10;99.90;;;;;;3947995;30;20058;-87
2023/01/11 06:41:29;;;;;;;21.80;19.58;;;-3.00;99.90;;;;;;3949121;30;20089;-87
2023/01/11 06:43:50;;;;;;;17.50;16.27;;;-2.90;99.90;;;;;;3961371;30;20050;-87
2023/01/11 06:46:14;;;;;;;19.38;18.08;;;-2.90;99.90;;;;;;3961467;30;20054;-87
2023/01/11 06:48:35;;;;;;;13.27;12.60;;;-2.80;99.90;;;;;;3960068;30;20090;-87
2023/01/11 06:50:57;;;;;;;13.23;12.75;;;-2.70;99.90;;;;;;3950384;30;20047;-87
2023/01/11 06:53:17;;;;;;;10.60;10.35;;;-2.60;99.90;;;;;;3949278;30;20051;-86
2023/01/11 06:55:37;;;;;;;17.38;16.25;;;-2.50;99.90;;;;;;3956339;30;20477;-87
2023/01/11 06:57:57;;;;;;;21.02;19.00;;;-2.50;99.90;;;;;;3950181;30;20103;-87
2023/01/11 07:00:17;;;;;;;23.95;21.73;;;-2.50;99.90;;;;;;3960570;30;20073;-87
2023/01/11 07:02:38;;;;;;;26.25;23.40;;;-2.60;99.90;;;;;;3949130;30;20078;-87
2023/01/11 07:04:57;;;;;;;25.63;22.95;;;-2.60;99.90;;;;;;3948571;30;20052;-87
2023/01/11 07:07:17;;;;;;;23.02;21.17;;;-2.70;99.90;;;;;;3949062;30;20122;-87
2023/01/11 07:09:37;;;;;;;18.23;16.77;;;-2.70;99.90;;;;;;3964653;30;20420;-87
2023/01/11 07:11:57;;;;;;;16.02;14.77;;;-2.70;99.90;;;;;;3949416;30;20059;-87
2023/01/11 07:14:18;;;;;;;19.77;18.48;;;-2.80;99.90;;;;;;3960743;30;20046;-87
2023/01/11 07:16:38;;;;;;;29.27;23.13;;;-2.80;99.90;;;;;;3949536;30;20082;-87
2023/01/11 07:18:58;;;;;;;20.98;19.35;;;-2.80;99.90;;;;;;3947513;30;20290;-87
2023/01/11 07:21:18;;;;;;;24.90;22.48;;;-2.80;99.90;;;;;;3949598;30;20428;-87
2023/01/11 07:23:38;;;;;;;23.33;21.23;;;-2.70;99.90;;;;;;3960346;30;20096;-87
2023/01/11 07:25:58;;;;;;;22.90;20.55;;;-2.80;99.90;;;;;;3948697;30;20070;-87
2023/01/11 07:28:18;;;;;;;24.80;22.25;;;-2.80;99.90;;;;;;3950272;30;20043;-87
2023/01/11 07:30:38;;;;;;;24.02;21.92;;;-2.70;99.90;;;;;;3947652;30;20369;-86
2023/01/11 07:33:17;;;;;;;21.02;18.58;;;-2.70;99.90;;;;;;3949200;30;20230;-87
2023/01/11 07:35:37;;;;;;;20.90;18.88;;;-2.70;99.90;;;;;;3947518;30;20262;-87
2023/01/11 07:37:56;;;;;;;16.08;15.00;;;-2.70;99.90;;;;;;3949502;30;20047;-87
2023/01/11 07:40:17;;;;;;;58.08;50.83;;;-2.60;99.90;;;;;;3949221;30;20255;-87
2023/01/11 07:45:15;;;;;;;12.77;12.25;;;-2.40;99.90;;;;;;3948504;30;20107;-87
2023/01/11 07:47:36;;;;;;;16.00;15.07;;;-2.30;99.90;;;;;;3963398;30;20054;-87
2023/01/11 07:49:56;;;;;;;51.95;32.80;;;-2.20;99.90;;;;;;3948414;30;20251;-86
2023/01/11 07:52:16;;;;;;;48.28;34.88;;;-2.20;99.90;;;;;;3947196;30;20063;-87
2023/01/11 07:54:36;;;;;;;30.58;25.50;;;-2.10;99.90;;;;;;3948738;30;20111;-87
2023/01/11 07:56:56;;;;;;;26.88;24.08;;;-2.20;99.90;;;;;;3951370;30;20078;-87
2023/01/11 07:59:16;;;;;;;24.13;21.90;;;-2.20;99.90;;;;;;3948098;30;20086;-87
2023/01/11 08:01:36;;;;;;;24.23;21.73;;;-2.30;99.90;;;;;;3948350;30;20149;-87
2023/01/11 08:03:56;;;;;;;25.27;22.67;;;-2.30;99.90;;;;;;3948529;30;20369;-87
2023/01/11 08:06:16;;;;;;;26.73;23.73;;;-2.30;99.90;;;;;;3948734;30;20055;-87
2023/01/11 08:08:37;;;;;;;22.45;20.30;;;-2.30;99.90;;;;;;3947914;30;20082;-87
2023/01/11 08:16:13;;;;;;;14.00;13.38;;;-2.30;99.90;;;;;;3949235;30;20101;-87
2023/01/11 08:18:33;;;;;;;14.18;13.27;;;-2.30;99.90;;;;;;3948818;30;20055;-87
2023/01/11 08:20:53;;;;;;;17.40;16.17;;;-2.30;99.90;;;;;;3961817;30;20064;-87
2023/01/11 08:23:13;;;;;;;16.88;15.77;;;-2.20;99.90;;;;;;3947076;30;20060;-87
2023/01/11 08:25:33;;;;;;;16.67;15.40;;;-2.20;99.90;;;;;;3960703;30;20111;-87
2023/01/11 08:27:53;;;;;;;16.65;15.35;;;-2.10;99.90;;;;;;3961928;30;20077;-87
2023/01/11 08:30:14;;;;;;;18.17;17.00;;;-2.10;99.90;;;;;;3946687;30;20086;-88
2023/01/11 08:32:34;;;;;;;20.23;18.75;;;-2.00;99.90;;;;;;3948099;30;20242;-88
2023/01/11 08:34:54;;;;;;;23.08;21.10;;;-1.90;99.90;;;;;;3948051;30;20054;-88
2023/01/11 08:37:14;;;;;;;20.70;18.77;;;-1.80;99.90;;;;;;3948593;30;20086;-88
2023/01/11 08:39:34;;;;;;;13.05;12.32;;;-1.80;99.90;;;;;;3949182;30;20051;-88
2023/01/11 08:41:54;;;;;;;13.93;13.07;;;-1.60;99.90;;;;;;3947723;30;20384;-88
2023/01/11 08:44:15;;;;;;;14.95;14.07;;;-1.50;99.90;;;;;;3947941;30;20047;-87
2023/01/11 08:46:48;;;;;;;11.88;11.52;;;-1.30;99.90;;;;;;3957460;30;20055;-88
2023/01/11 08:49:11;;;;;;;12.73;11.73;;;-1.20;99.90;;;;;;3946620;30;20112;-88
2023/01/11 08:51:31;;;;;;;11.13;10.63;;;-1.00;99.90;;;;;;3959762;30;20054;-88
2023/01/11 08:53:51;;;;;;;12.18;11.60;;;-0.90;99.90;;;;;;3948681;30;20066;-88
2023/01/11 08:56:11;;;;;;;12.10;11.13;;;-0.80;99.90;;;;;;3947753;30;20067;-89
2023/01/11 08:58:31;;;;;;;17.17;15.50;;;-0.60;99.90;;;;;;3948452;30;20063;-90
2023/01/11 09:00:51;;;;;;;19.50;17.88;;;-0.50;99.90;;;;;;3963658;30;20062;-89
2023/01/11 09:03:12;;;;;;;17.48;15.82;;;-0.50;99.90;;;;;;3947416;30;20401;-89
2023/01/11 09:05:33;;;;;;;25.77;20.35;;;-0.40;99.90;;;;;;3961389;30;20055;-90
2023/01/11 09:07:56;;;;;;;21.80;19.85;;;-0.40;99.90;;;;;;3947320;30;20051;-89
2023/01/11 09:10:16;;;;;;;19.35;17.48;;;-0.50;99.90;;;;;;3948290;30;20100;-89
2023/01/11 09:12:35;;;;;;;30.63;24.55;;;-0.50;99.90;;;;;;3948317;30;20055;-89
2023/01/11 09:14:56;;;;;;;30.35;25.17;;;-0.50;99.90;;;;;;3960548;30;20246;-89
2023/01/11 09:17:16;;;;;;;25.33;22.70;;;-0.40;99.90;;;;;;3947124;30;20047;-89
2023/01/11 09:19:36;;;;;;;34.55;27.13;;;-0.40;99.90;;;;;;3948952;30;20101;-89
2023/01/11 09:21:57;;;;;;;22.10;20.15;;;-0.40;99.90;;;;;;3947818;30;20123;-89
2023/01/11 09:24:16;;;;;;;20.15;18.60;;;-0.30;99.90;;;;;;3946516;30;20051;-89
2023/01/11 09:26:37;;;;;;;18.08;16.65;;;-0.20;99.90;;;;;;3947949;30;20082;-89
2023/01/11 09:28:57;;;;;;;13.05;12.32;;;0.10;99.90;;;;;;3946485;30;20243;-89
2023/01/11 09:31:16;;;;;;;17.05;15.63;;;0.30;99.90;;;;;;3946719;30;20086;-88
2023/01/11 09:33:39;;;;;;;15.95;14.63;;;0.50;99.90;;;;;;3948134;30;20086;-89
2023/01/11 09:36:01;;;;;;;14.70;13.60;;;0.80;99.90;;;;;;3959752;30;20066;-90
2023/01/11 09:38:25;;;;;;;12.38;11.68;;;0.90;99.90;;;;;;3947782;30;20095;-89
2023/01/11 09:41:03;;;;;;;34.40;27.92;;;1.00;99.90;;;;;;3946899;30;20070;-89
2023/01/11 09:43:27;;;;;;;43.95;32.33;;;0.90;99.90;;;;;;3949399;30;20042;-89
2023/01/11 09:45:49;;;;;;;49.53;35.88;;;0.80;99.90;;;;;;3959796;30;20351;-88
2023/01/11 09:48:32;;;;;;;33.33;24.65;;;0.90;99.90;;;;;;3946329;30;20127;-89
2023/01/11 09:50:51;;;;;;;32.17;26.63;;;0.90;99.90;;;;;;3947043;30;20235;-89
2023/01/11 09:53:27;;;;;;;34.30;26.13;;;1.30;99.90;;;;;;3958948;30;20097;-88
2023/01/11 09:55:50;;;;;;;33.13;27.25;;;1.30;99.90;;;;;;3948954;30;20393;-88
2023/01/11 09:58:25;;;;;;;34.55;26.05;;;1.40;99.90;;;;;;3946999;30;20097;-89
2023/01/11 10:01:10;;;;;;;33.55;26.02;;;1.60;99.90;;;;;;3947796;30;20128;-89
2023/01/11 10:04:15;;;;;;;21.33;19.30;;;1.90;99.90;;;;;;3960848;30;20092;-89
2023/01/11 10:07:00;;;;;;;14.45;13.25;;;2.20;99.90;;;;;;3946855;30;20074;-89
2023/01/11 10:09:40;;;;;;;19.27;17.35;;;2.70;99.90;;;;;;3945017;30;20052;-88
2023/01/11 10:12:32;;;;;;;53.88;37.45;;;2.60;99.90;;;;;;3947303;30;20264;-90
2023/01/11 10:15:31;;;;;;;55.03;36.60;;;2.30;99.90;;;;;;3956889;30;20397;-90
2023/01/11 10:18:38;;;;;;;49.45;35.13;;;2.20;99.90;;;;;;3948344;30;20173;-90
2023/01/11 10:21:53;;;;;;;48.40;34.20;;;2.10;99.90;;;;;;3947278;30;20282;-92
2023/01/11 10:24:25;;;;;;;43.92;33.10;;;2.20;99.90;;;;;;3943916;30;20145;-91
2023/01/11 10:26:48;;;;;;;38.53;29.15;;;2.30;99.90;;;;;;3938187;30;20047;-91
2023/01/11 10:29:56;;;;;;;37.50;29.83;;;2.50;99.90;;;;;;3945577;30;20051;-91
2023/01/11 10:32:20;;;;;;;33.00;27.48;;;2.70;99.90;;;;;;3948364;30;20058;-91
2023/01/11 10:35:13;;;;;;;36.20;26.88;;;3.10;99.90;;;;;;3936583;30;20151;-91
2023/01/11 10:37:52;;;;;;;35.67;27.70;;;3.30;99.90;;;;;;3945939;30;20055;-91
2023/01/11 10:41:05;;;;;;;33.72;26.48;;;3.30;99.90;;;;;;3935320;30;20213;-91
2023/01/11 10:43:29;;;;;;;63.78;43.55;;;3.30;99.90;;;;;;3935875;30;20083;-91
2023/01/11 10:45:58;;;;;;;30.83;27.52;;;3.50;99.90;;;;;;3934601;30;20094;-90
2023/01/11 10:48:28;;;;;;;51.92;32.22;;;3.60;99.90;;;;;;3945349;30;20090;-91
2023/01/11 10:50:56;;;;;;;35.97;26.23;;;3.80;99.90;;;;;;3944444;30;20157;-90
2023/01/11 10:53:32;;;;;;;35.30;26.60;;;3.90;99.90;;;;;;3947730;30;20074;-91
2023/01/11 10:56:10;;;;;;;40.40;27.70;;;4.10;99.90;;;;;;3934624;30;20095;-91
2023/01/11 10:59:06;;;;;;;42.25;31.40;;;4.20;99.90;;;;;;3949062;30;20378;-92
2023/01/11 11:01:49;;;;;;;27.42;21.75;;;4.50;99.90;;;;;;3900387;30;20087;-91
2023/01/11 11:04:15;;;;;;;27.42;22.83;;;4.80;99.90;;;;;;3912629;30;20382;-91
2023/01/11 11:07:07;;;;;;;26.77;22.73;;;4.90;99.90;;;;;;3899289;30;20048;-90
2023/01/11 11:09:46;;;;;;;22.23;19.85;;;5.10;99.90;;;;;;3911814;30;20059;-91
2023/01/11 11:12:11;;;;;;;24.02;20.63;;;5.40;99.90;;;;;;3900679;30;20243;-90
2023/01/11 11:14:40;;;;;;;31.20;24.42;;;6.00;99.90;;;;;;3898545;30;20264;-91
2023/01/11 11:17:38;;;;;;;28.50;23.48;;;6.30;99.90;;;;;;3903751;30;20161;-91
2023/01/11 11:19:58;;;;;;;28.08;23.52;;;6.60;99.90;;;;;;3900137;30;20186;-92
2023/01/11 11:22:19;;;;;;;27.27;24.38;;;6.60;99.90;;;;;;3911587;30;20083;-91
2023/01/11 11:24:49;;;;;;;28.83;23.13;;;6.50;99.90;;;;;;3909689;30;20052;-91
2023/01/11 11:27:22;;;;;;;24.05;21.52;;;6.50;99.90;;;;;;3911967;30;20080;-92
2023/01/11 11:29:49;;;;;;;25.48;22.00;;;6.60;99.90;;;;;;3898531;30;20057;-92
2023/01/11 11:32:20;;;;;;;22.15;20.00;;;6.70;99.90;;;;;;3901323;30;20052;-90
2023/01/11 11:34:49;;;;;;;27.83;20.73;;;6.60;99.90;;;;;;3918571;30;20083;-92
2023/01/11 11:37:22;;;;;;;24.30;20.50;;;6.60;99.90;;;;;;3949396;30;20065;-92
2023/01/11 11:39:42;;;;;;;19.77;17.88;;;6.60;99.90;;;;;;3960531;30;20104;-92
2023/01/11 11:42:14;;;;;;;22.67;19.85;;;6.90;99.90;;;;;;3949399;30;20074;-92
2023/01/11 11:44:34;;;;;;;18.38;16.27;;;6.90;99.90;;;;;;3947985;30;20055;-92
2023/01/11 11:47:01;;;;;;;18.35;16.63;;;6.90;99.90;;;;;;3953121;30;20055;-92
2023/01/11 11:49:21;;;;;;;19.13;17.13;;;6.90;99.90;;;;;;3947422;30;20377;-92
2023/01/11 11:51:44;;;;;;;17.38;15.77;;;7.50;99.90;;;;;;3960395;30;20046;-92
2023/01/11 11:54:04;;;;;;;15.13;13.68;;;8.10;99.90;;;;;;3959581;30;20161;-92
2023/01/11 11:56:27;;;;;;;18.20;16.38;;;8.30;99.90;;;;;;3949611;30;20128;-92
2023/01/11 11:58:47;;;;;;;17.42;15.70;;;8.10;99.90;;;;;;3960610;30;20047;-92
2023/01/11 12:01:38;;;;;;;21.08;15.90;;;7.90;99.90;;;;;;3947965;30;20082;-92
2023/01/11 12:04:09;;;;;;;18.00;13.95;;;8.10;99.90;;;;;;3947522;30;20366;-92
2023/01/11 12:06:30;;;;;;;14.90;13.18;;;8.10;99.90;;;;;;3947889;30;20086;-92
2023/01/11 12:08:50;;;;;;;14.60;13.10;;;8.20;99.90;;;;;;3948143;30;20059;-91
2023/01/11 12:11:19;;;;;;;15.60;14.13;;;8.30;99.90;;;;;;3948697;30;20366;-92
2023/01/11 12:13:41;;;;;;;12.80;11.02;;;8.20;99.90;;;;;;3961279;30;20051;-92
2023/01/11 12:16:06;;;;;;;15.10;11.95;;;8.50;99.90;;;;;;3949619;30;20239;-92
2023/01/11 12:18:32;;;;;;;13.55;12.07;;;8.70;99.90;;;;;;3948661;30;20069;-91
2023/01/11 12:20:52;;;;;;;13.75;12.60;;;8.80;99.90;;;;;;3950914;30;20104;-92
2023/01/11 12:23:23;;;;;;;40.50;26.92;;;9.00;99.90;;;;;;3949104;30;20079;-92
2023/01/11 12:26:12;;;;;;;22.05;18.58;;;8.90;99.90;;;;;;3956416;30;20405;-92
2023/01/11 12:28:49;;;;;;;27.95;20.13;;;8.70;99.90;;;;;;3960097;30;20073;-92
2023/01/11 12:31:24;;;;;;;27.80;18.38;;;8.80;99.90;;;;;;3959402;30;20092;-92
2023/01/11 12:34:11;;;;;;;26.77;23.10;;;8.80;99.90;;;;;;3959955;30;20108;-91
2023/01/11 12:36:31;;;;;;;14.80;13.57;;;8.70;99.90;;;;;;3948049;30;20118;-92
2023/01/11 12:39:33;;;;;;;16.08;14.32;;;9.10;99.90;;;;;;3949536;30;20046;-92
2023/01/11 12:42:23;;;;;;;43.97;28.58;;;9.20;99.10;;;;;;3964912;29;20072;-87
2023/01/11 12:45:04;;;;;;;13.93;12.55;;;9.50;99.30;;;;;;3946695;30;20093;-87
2023/01/11 12:47:42;;;;;;;23.77;18.17;;;9.70;99.90;;;;;;3961025;30;20085;-87
2023/01/11 12:50:14;;;;;;;21.42;18.23;;;10.10;99.70;;;;;;3962194;30;20076;-87
2023/01/11 12:52:47;;;;;;;18.73;15.77;;;10.20;98.50;;;;;;3952454;30;20125;-87